createdAt,value
2018-11-21T00:01:49.210Z,74.47
2018-11-21T00:04:18.773Z,68.15
2018-11-21T00:06:48.383Z,67.47
2018-11-21T00:09:17.947Z,70.95
2018-11-21T00:11:47.591Z,68.67
2018-11-21T00:14:17.217Z,69.12
2018-11-21T00:16:46.699Z,69.80
2018-11-21T00:19:16.332Z,65.00
2018-11-21T00:21:45.907Z,65.03
2018-11-21T00:24:15.536Z,63.40
2018-11-21T00:26:45.075Z,62.48
2018-11-21T00:29:14.724Z,62.08
2018-11-21T00:31:44.358Z,60.30
2018-11-21T00:34:13.938Z,58.17
2018-11-21T00:36:43.643Z,58.83
2018-11-21T00:39:13.241Z,57.90
2018-11-21T00:41:42.886Z,56.85
2018-11-21T00:44:12.563Z,55.40
2018-11-21T00:46:42.166Z,56.68
2018-11-21T00:49:11.772Z,56.42
2018-11-21T00:51:41.378Z,54.40
2018-11-21T00:54:10.974Z,53.68
2018-11-21T00:56:40.732Z,52.88
2018-11-21T00:59:10.326Z,50.63
2018-11-21T01:01:39.905Z,51.70
2018-11-21T01:04:09.435Z,50.90
2018-11-21T01:06:39.010Z,50.75
2018-11-21T01:09:08.662Z,49.27
2018-11-21T01:11:38.363Z,49.15
2018-11-21T01:14:07.960Z,49.10
2018-11-21T01:16:37.636Z,48.65
2018-11-21T01:19:07.151Z,48.90
2018-11-21T01:21:36.776Z,48.05
2018-11-21T01:24:06.519Z,46.18
2018-11-21T01:26:36.092Z,47.62
2018-11-21T01:29:05.561Z,46.30
2018-11-21T01:31:35.294Z,45.48
2018-11-21T01:34:04.830Z,44.50
2018-11-21T01:36:34.510Z,46.65
2018-11-21T01:39:04.927Z,46.42
2018-11-21T01:41:34.512Z,44.58
2018-11-21T01:44:04.122Z,44.08
2018-11-21T01:46:33.830Z,44.42
2018-11-21T01:49:03.463Z,42.78
2018-11-21T01:51:33.450Z,42.35
2018-11-21T01:54:03.080Z,42.00
2018-11-21T01:56:32.750Z,43.95
2018-11-21T01:59:02.392Z,42.98
2018-11-21T02:01:31.962Z,41.33
2018-11-21T02:04:01.606Z,41.23
2018-11-21T02:06:31.175Z,42.08
2018-11-21T02:09:00.768Z,41.85
2018-11-21T02:11:30.289Z,40.20
2018-11-21T02:13:59.928Z,39.53
2018-11-21T02:16:29.500Z,41.48
2018-11-21T02:18:59.140Z,40.03
2018-11-21T02:21:28.690Z,38.60
2018-11-21T02:23:58.422Z,39.08
2018-11-21T02:26:28.049Z,36.58
2018-11-21T02:28:57.639Z,37.65
2018-11-21T02:31:27.234Z,36.68
2018-11-21T02:33:56.858Z,36.65
2018-11-21T02:36:26.372Z,37.25
2018-11-21T02:38:55.949Z,35.33
2018-11-21T02:41:25.535Z,37.25
2018-11-21T02:43:55.057Z,35.48
2018-11-21T02:46:24.765Z,36.70
2018-11-21T02:48:54.354Z,34.60
2018-11-21T02:51:23.879Z,34.10
2018-11-21T02:53:53.504Z,33.98
2018-11-21T02:56:42.335Z,34.30
2018-11-21T02:59:11.981Z,32.90
2018-11-21T03:01:41.550Z,32.25
2018-11-21T03:04:11.256Z,33.38
2018-11-21T03:06:40.964Z,33.67
2018-11-21T03:09:10.562Z,32.00
2018-11-21T03:11:40.177Z,31.42
2018-11-21T03:14:09.810Z,31.37
2018-11-21T03:16:39.285Z,29.67
2018-11-21T03:19:08.918Z,29.23
2018-11-21T03:21:38.495Z,30.37
2018-11-21T03:24:08.127Z,32.08
2018-11-21T03:26:37.807Z,30.92
2018-11-21T03:29:07.415Z,29.98
2018-11-21T03:31:36.800Z,29.40
2018-11-21T03:34:06.826Z,29.15
2018-11-21T03:36:36.461Z,30.70
2018-11-21T03:39:09.576Z,27.90
2018-11-21T03:41:38.987Z,30.85
2018-11-21T03:44:08.527Z,28.98
2018-11-21T03:46:38.163Z,27.05
2018-11-21T03:49:07.737Z,29.00
2018-11-21T03:51:38.199Z,33.00
2018-11-21T03:54:07.880Z,33.50
2018-11-21T03:56:38.126Z,38.20
2018-11-21T03:59:08.243Z,33.78
2018-11-21T04:01:38.126Z,40.38
2018-11-21T04:04:08.477Z,51.05
2018-11-21T04:06:38.033Z,51.53
2018-11-21T04:09:12.162Z,68.92
2018-11-21T04:11:41.755Z,38.42
2018-11-21T04:14:11.292Z,72.80
2018-11-21T04:16:40.874Z,54.40
2018-11-21T04:19:10.502Z,60.25
2018-11-21T04:21:40.124Z,53.20
2018-11-21T04:24:09.713Z,53.42
2018-11-21T04:26:39.297Z,52.30
2018-11-21T04:29:08.926Z,55.95
2018-11-21T04:31:38.506Z,54.35
2018-11-21T04:34:08.151Z,56.05
2018-11-21T04:36:37.656Z,52.35
2018-11-21T04:39:11.134Z,53.33
2018-11-21T04:41:40.749Z,56.20
2018-11-21T04:44:10.323Z,55.43
2018-11-21T04:46:39.959Z,54.20
2018-11-21T04:49:09.637Z,54.15
2018-11-21T04:51:39.247Z,53.95
2018-11-21T04:54:08.871Z,55.05
2018-11-21T04:56:38.450Z,57.00
2018-11-21T04:59:08.082Z,54.35
2018-11-21T05:01:37.663Z,55.03
2018-11-21T05:04:07.155Z,55.65
2018-11-21T05:06:36.773Z,53.83
2018-11-21T05:09:09.387Z,53.38
2018-11-21T05:11:38.958Z,54.23
2018-11-21T05:14:08.460Z,51.25
2018-11-21T05:16:38.095Z,52.23
2018-11-21T05:19:07.638Z,51.98
2018-11-21T05:21:37.309Z,50.73
2018-11-21T05:24:06.877Z,51.18
2018-11-21T05:26:36.513Z,51.68
2018-11-21T05:29:05.987Z,51.08
2018-11-21T05:31:35.706Z,50.33
2018-11-21T05:34:05.298Z,51.02
2018-11-21T05:36:34.794Z,49.90
2018-11-21T05:39:06.387Z,48.78
2018-11-21T05:41:35.964Z,46.92
2018-11-21T05:44:05.693Z,46.45
2018-11-21T05:46:35.151Z,46.18
2018-11-21T05:49:04.667Z,48.15
2018-11-21T05:51:34.132Z,55.90
2018-11-21T05:54:03.782Z,40.30
2018-11-21T05:56:33.384Z,34.03
2018-11-21T05:59:03.094Z,30.30
2018-11-21T06:01:32.732Z,28.73
2018-11-21T06:04:02.360Z,25.70
2018-11-21T06:06:31.935Z,23.62
2018-11-21T06:09:01.518Z,22.40
2018-11-21T06:11:31.150Z,21.45
2018-11-21T06:14:01.245Z,22.67
2018-11-21T06:16:30.962Z,25.75
2018-11-21T06:19:00.556Z,30.90
2018-11-21T06:21:30.165Z,37.95
2018-11-21T06:23:59.789Z,34.30
2018-11-21T06:26:29.471Z,41.77
2018-11-21T06:28:59.172Z,39.92
2018-11-21T06:31:28.631Z,39.58
2018-11-21T06:33:58.305Z,36.88
2018-11-21T06:36:27.894Z,35.20
2018-11-21T06:38:57.398Z,37.05
2018-11-21T06:41:26.899Z,36.80
2018-11-21T06:43:56.889Z,40.10
2018-11-21T06:46:26.344Z,45.03
2018-11-21T06:48:55.922Z,51.73
2018-11-21T06:51:25.510Z,53.73
2018-11-21T06:53:55.133Z,54.93
2018-11-21T06:56:24.738Z,53.00
2018-11-21T06:58:55.272Z,53.05
2018-11-21T07:01:24.062Z,47.40
2018-11-21T07:03:53.693Z,47.25
2018-11-21T07:06:23.262Z,50.90
2018-11-21T07:08:52.890Z,48.20
2018-11-21T07:11:22.471Z,48.30
2018-11-21T07:13:52.107Z,46.28
2018-11-21T07:16:21.683Z,44.85
2018-11-21T07:18:51.318Z,44.77
2018-11-21T07:21:20.893Z,45.58
2018-11-21T07:23:50.604Z,48.17
2018-11-21T07:26:20.205Z,48.08
2018-11-21T07:28:49.818Z,39.60
2018-11-21T07:31:19.447Z,47.20
2018-11-21T07:33:49.029Z,45.88
2018-11-21T07:36:18.761Z,45.28
2018-11-21T07:38:48.449Z,43.85
2018-11-21T07:41:18.070Z,43.08
2018-11-21T07:43:47.751Z,42.62
2018-11-21T07:46:17.388Z,43.90
2018-11-21T07:48:46.964Z,42.55
2018-11-21T07:51:16.603Z,41.13
2018-11-21T07:53:46.067Z,41.25
2018-11-21T07:57:03.499Z,43.68
2018-11-21T07:59:33.107Z,40.88
2018-11-21T08:02:14.786Z,40.98
2018-11-21T08:04:51.464Z,40.03
2018-11-21T08:07:42.673Z,38.48
2018-11-21T08:10:29.995Z,39.75
2018-11-21T08:13:30.719Z,39.23
2018-11-21T08:16:22.150Z,38.35
2018-11-21T08:19:25.914Z,37.93
2018-11-21T08:22:26.585Z,36.53
2018-11-21T08:25:21.178Z,37.20
2018-11-21T08:28:24.583Z,37.33
2018-11-21T08:30:56.264Z,35.55
2018-11-21T08:33:25.733Z,36.23
2018-11-21T08:35:55.361Z,36.28
2018-11-21T08:38:25.005Z,34.73
2018-11-21T08:40:54.550Z,33.78
2018-11-21T08:43:24.135Z,33.05
2018-11-21T08:45:53.758Z,33.50
2018-11-21T08:48:23.603Z,32.48
2018-11-21T08:50:53.179Z,32.95
2018-11-21T08:53:22.802Z,32.25
2018-11-21T08:55:52.425Z,31.10
2018-11-21T08:58:22.003Z,30.45
2018-11-21T09:00:51.596Z,30.08
2018-11-21T09:03:21.306Z,29.65
2018-11-21T09:05:50.874Z,29.32
2018-11-21T09:08:20.426Z,30.00
2018-11-21T09:10:50.055Z,29.15
2018-11-21T09:13:19.786Z,28.47
2018-11-21T09:15:49.339Z,29.82
2018-11-21T09:18:18.929Z,27.58
2018-11-21T09:20:48.544Z,29.00
2018-11-21T09:23:18.176Z,27.70
2018-11-21T09:25:47.748Z,27.30
2018-11-21T09:28:17.417Z,27.35
2018-11-21T09:30:47.046Z,26.77
2018-11-21T09:33:16.639Z,24.15
2018-11-21T09:35:46.492Z,25.48
2018-11-21T09:38:16.087Z,26.10
2018-11-21T09:40:45.594Z,25.97
2018-11-21T09:43:15.096Z,24.72
2018-11-21T09:45:44.700Z,24.95
2018-11-21T09:48:14.206Z,24.37
2018-11-21T09:50:43.924Z,24.72
2018-11-21T09:53:13.537Z,24.20
2018-11-21T09:55:43.222Z,24.70
2018-11-21T09:58:12.891Z,23.47
2018-11-21T10:01:18.939Z,23.18
2018-11-21T10:03:48.595Z,23.18
2018-11-21T10:06:23.087Z,22.62
2018-11-21T10:08:57.503Z,22.87
2018-11-21T10:11:27.080Z,22.73
2018-11-21T10:13:56.700Z,22.93
2018-11-21T10:16:26.148Z,22.75
2018-11-21T10:18:57.118Z,21.55
2018-11-21T10:21:30.899Z,20.80
2018-11-21T10:24:00.593Z,22.10
2018-11-21T10:26:30.201Z,21.42
2018-11-21T10:28:59.834Z,21.75
2018-11-21T10:31:29.424Z,20.10
2018-11-21T10:33:59.160Z,21.60
2018-11-21T10:36:28.726Z,20.55
2018-11-21T10:38:58.267Z,20.48
2018-11-21T10:41:27.842Z,21.55
2018-11-21T10:43:57.541Z,20.82
2018-11-21T10:46:27.073Z,20.68
2018-11-21T10:48:56.708Z,19.85
2018-11-21T10:51:26.258Z,19.60
2018-11-21T10:53:55.861Z,19.92
2018-11-21T10:56:25.446Z,20.80
2018-11-21T10:58:55.177Z,19.77
2018-11-21T11:01:43.782Z,19.25
2018-11-21T11:04:45.994Z,19.42
2018-11-21T11:07:39.491Z,19.30
2018-11-21T11:10:22.794Z,18.77
2018-11-21T11:13:09.730Z,18.87
2018-11-21T11:15:53.360Z,18.12
2018-11-21T11:18:40.550Z,18.30
2018-11-21T11:21:32.558Z,18.45
2018-11-21T11:24:24.276Z,16.48
2018-11-21T11:27:11.526Z,16.45
2018-11-21T11:30:06.015Z,16.87
2018-11-21T11:33:07.051Z,16.62
2018-11-21T11:35:46.180Z,16.93
2018-11-21T11:38:50.183Z,17.23
2018-11-21T11:41:57.039Z,16.23
2018-11-21T11:44:45.658Z,16.07
2018-11-21T11:47:49.042Z,15.75
2018-11-21T11:50:37.610Z,14.95
2018-11-21T11:53:25.092Z,15.35
2018-11-21T11:56:31.974Z,14.50
2018-11-21T11:59:19.119Z,14.45
2018-11-21T12:02:25.711Z,14.10
2018-11-21T12:05:14.002Z,12.68
2018-11-21T12:08:09.789Z,14.15
2018-11-21T12:11:07.351Z,14.50
2018-11-21T12:14:01.740Z,13.38
2018-11-21T12:16:53.189Z,13.32
2018-11-21T12:19:51.053Z,12.65
2018-11-21T12:22:38.885Z,13.10
2018-11-21T12:25:45.751Z,12.35
2018-11-21T12:28:37.168Z,13.45
2018-11-21T12:31:31.464Z,12.37
2018-11-21T12:34:32.098Z,11.93
2018-11-21T12:37:19.146Z,13.00
2018-11-21T12:40:07.968Z,12.98
2018-11-21T12:42:55.493Z,12.28
2018-11-21T12:45:46.915Z,12.37
2018-11-21T12:48:33.921Z,12.10
2018-11-21T12:51:40.493Z,12.33
2018-11-21T12:54:28.021Z,11.88
2018-11-21T12:57:08.963Z,11.57
2018-11-21T12:59:56.045Z,11.80
2018-11-21T13:02:46.870Z,11.20
2018-11-21T13:05:28.845Z,11.38
2018-11-21T13:08:15.734Z,11.00
2018-11-21T13:11:10.122Z,11.65
2018-11-21T13:13:51.237Z,10.43
2018-11-21T13:16:45.339Z,10.23
2018-11-21T13:19:32.472Z,10.85
2018-11-21T13:22:29.492Z,10.70
2018-11-21T13:25:16.813Z,10.10
2018-11-21T13:27:59.023Z,10.15
2018-11-21T13:30:46.516Z,10.60
2018-11-21T13:33:35.434Z,10.15
2018-11-21T13:36:32.618Z,9.35
2018-11-21T13:39:22.357Z,9.03
2018-11-21T13:42:04.371Z,9.83
2018-11-21T13:44:53.786Z,8.98
2018-11-21T13:47:45.125Z,8.63
2018-11-21T13:50:34.233Z,8.73
2018-11-21T13:53:29.305Z,8.78
2018-11-21T13:55:58.892Z,9.10
2018-11-21T13:58:29.689Z,8.65
2018-11-21T14:00:59.669Z,9.03
2018-11-21T14:03:29.221Z,8.73
2018-11-21T14:05:59.125Z,9.05
2018-11-21T14:08:41.107Z,8.68
2018-11-21T14:11:10.769Z,9.05
2018-11-21T14:13:40.331Z,9.20
2018-11-21T14:16:10.102Z,8.05
2018-11-21T14:18:39.722Z,8.58
2018-11-21T14:21:09.410Z,8.83
2018-11-21T14:23:39.113Z,8.68
2018-11-21T14:26:08.812Z,10.25
2018-11-21T14:28:38.418Z,8.75
2018-11-21T14:31:08.654Z,9.25
2018-11-21T14:33:38.197Z,8.73
2018-11-21T14:36:07.802Z,8.40
2018-11-21T14:38:37.352Z,9.33
2018-11-21T14:41:06.890Z,8.13
2018-11-21T14:43:36.394Z,7.83
2018-11-21T14:46:07.025Z,8.23
2018-11-21T14:48:36.839Z,8.35
2018-11-21T14:51:07.180Z,8.20
2018-11-21T14:53:36.757Z,7.72
2018-11-21T14:56:06.989Z,8.03
2018-11-21T14:58:36.560Z,7.85
2018-11-21T15:01:06.133Z,7.75
2018-11-21T15:03:35.725Z,7.90
2018-11-21T15:06:05.680Z,7.90
2018-11-21T15:08:35.212Z,7.95
2018-11-21T15:11:04.790Z,7.80
2018-11-21T15:13:34.298Z,7.05
2018-11-21T15:16:05.355Z,7.80
2018-11-21T15:18:34.959Z,7.28
2018-11-21T15:21:04.719Z,7.33
2018-11-21T15:23:34.382Z,7.58
2018-11-21T15:26:03.973Z,7.15
2018-11-21T15:28:33.511Z,7.47
2018-11-21T15:31:03.124Z,7.10
2018-11-21T15:33:32.615Z,7.40
2018-11-21T15:36:02.703Z,6.83
2018-11-21T15:38:32.221Z,7.45
2018-11-21T15:41:01.771Z,7.80
2018-11-21T15:43:32.574Z,7.58
2018-11-21T15:46:02.185Z,7.50
2018-11-21T15:48:31.817Z,7.58
2018-11-21T15:51:01.374Z,7.12
2018-11-21T15:53:30.877Z,7.53
2018-11-21T15:56:00.365Z,7.03
2018-11-21T15:58:29.990Z,6.80
2018-11-21T16:00:59.549Z,7.90
2018-11-21T16:03:29.093Z,6.92
2018-11-21T16:06:01.433Z,6.80
2018-11-21T16:08:30.994Z,7.33
2018-11-21T16:11:00.533Z,6.65
2018-11-21T16:13:30.081Z,7.10
2018-11-21T16:15:59.645Z,7.45
2018-11-21T16:18:29.372Z,7.53
